Pequea, PA

12:08 EDT je la 24an de aŭgusto 2016 (GMT -0400)
Pequea, PA | | Change Station

Elev 463 ft 39.92 °N, 76.30 °W | Updated 3 minutes ago

Clear
Sennuba
82.1 °F
Sentas kiel 85 °F
N
0.0
Vento Varianta Vento from OkNOk
Gusts 5.0 mej/h

hodiaŭ
High -- | Low -- °F
--% Ebla precip.
hieraŭ
High -- | Low -- °F
Precip. -- co
Aerpremo 30.27 co
Vidodistanco 10.0 mejloj
Nuboj Sennuba
Varmindico 85 °F
Rosopunkto 67 °F
Humido 60%
Pluvokvanto 0.00 co
Neĝprofundo Not available.
6:26 AM 7:48 PM
Malkreskanta Lunĝibo, 56% visible
METAR KLNS 241553Z 25006KT 10SM CLR 27/18 A3027 RMK AO2 SLP248 T02670183
Aerpremo 30.27 co
Vidodistanco 10.0 mejloj
Nuboj Sennuba
Varmindico 85 °F
Rosopunkto 67 °F
Humido 60%
Pluvokvanto 0.00 co
Neĝprofundo Not available.
6:26 AM 7:48 PM
Malkreskanta Lunĝibo, 56% visible
METAR KLNS 241553Z 25006KT 10SM CLR 27/18 A3027 RMK AO2 SLP248 T02670183

10-Day Weather Forecast

Almanac

Astronomio

Aug. 24, 2016 Leviĝo Subiro
Aktuala tempo
Civila krepusko
Naŭtika krepusko
Astronomia krepusko
Luno
Daŭro de videbla lumo
Daŭro de tago
Tomorrow will be .
, % of the Moon is Illuminated

Hodiaŭaj ekstremaĵoj

State Highs State Lows

Community

WunderPhotos

Upload Photos

1,934,637 photos uploaded!

WunderBlog® & News

Nearby

Aerkvalito

  Aerkvalito Aerkvalita indico Poluanto
Not available.

Neĝa profundeco

Station Depth Alteco

Earthquake Activity

Urbo Distance Mag. Time & Date
Minimum magnitude displayed is 2.5.

Coastal Water Temperatures

Loko Temperaturo

Stations

Najbaraj veter-stacioj

Loko de stacio Temp Venta
kvazaŭtemperaturo
Rosopunkto Humido Vento Precip. Elev Ĝisdatigita je Tipo
                   

Watches & Warnings

There are currently no watches in effect.